Latest Weather Observations for Hay Airport

IDN60801

Issued at 4:32 pm EDT Sunday 26 February 2017 (issued every 30 minutes, with the page automatically refreshed every 10 minutes)

About weather observations | Map of weather stations | Latest weather observations for NSW | Other Formats
Station Details ID: 075019 Name: HAY AIRPORT AWS Lat: -34.54 Lon: 144.83 Height: 92.0 m
Data from the previous 72 hours. | See also: Recent months at Hay Airport
Date/Time
EDT
Temp
°C
App
Temp
°C
Dew
Point
°C
Rel
Hum
%
Delta-T
°C
Wind Press
QNH
hPa
Press
MSL
hPa
Rain since
9am
mm
Dir  Spd
km/h
Gust
km/h
Spd
kts
Gust
kts
26/04:30pm 33.5 30.9 9.5 23 13.7 NNE 13 20 7 11 1015.4 1014.9 0.0
26/04:00pm 34.0 31.2 9.9 23 13.9 E 15 22 8 12 1015.6 1015.1 0.0
26/03:30pm 33.0 29.4 10.4 25 13.1 E 20 32 11 17 1015.8 1015.4 0.0
26/03:00pm 32.9 29.2 11.4 27 12.6 E 22 30 12 16 1016.2 1015.8 0.0
26/02:30pm 31.7 29.7 11.5 29 11.8 NE 13 20 7 11 1016.6 1016.2 0.0
26/02:00pm 31.8 28.7 12.1 30 11.6 ENE 20 32 11 17 1017.2 1016.8 0.0
26/01:30pm 30.7 27.7 12.6 33 10.7 ENE 20 33 11 18 1017.4 1017.0 0.0
26/01:00pm 30.1 27.2 13.0 35 10.2 ENE 20 32 11 17 1017.8 1017.4 0.0
26/12:30pm 29.8 26.2 13.1 36 9.9 E 24 37 13 20 1018.1 1017.7 0.0
26/12:00pm 28.5 24.9 13.2 39 9.1 ENE 24 37 13 20 1018.4 1018.0 0.0
26/11:30am 27.6 24.1 13.5 41 8.4 ENE 24 35 13 19 1018.7 1018.3 0.0
26/11:00am 26.6 22.8 13.7 45 7.6 ENE 26 35 14 19 1018.9 1018.5 0.0
26/10:30am 25.6 21.0 13.5 47 7.1 ENE 30 39 16 21 1019.1 1018.7 0.0
26/10:00am 25.3 21.8 13.5 48 6.9 ENE 24 39 13 21 1019.0 1018.6 0.0
26/09:30am 24.2 20.3 13.4 51 6.3 ENE 26 35 14 19 1018.8 1018.4 0.0
26/09:00am 22.5 18.5 13.0 55 5.5 ENE 26 35 14 19 1018.6 1018.2 0.0
26/08:56am 22.5 19.4 13.3 56 5.3 E 22 35 12 19 1018.5 1018.1 0.0
26/08:30am 20.1 18.7 12.3 61 4.4 E 11 17 6 9 1018.5 1018.1 0.0
26/08:00am 17.0 15.9 10.6 66 3.4 ESE 7 9 4 5 1018.3 1017.9 0.0
26/07:30am 15.0 13.6 9.6 70 2.8 ESE 7 11 4 6 1018.1 1017.7 0.0
26/07:00am 14.3 12.4 8.9 70 2.7 ESE 9 13 5 7 1017.8 1017.4 0.0
26/06:30am 14.5 12.6 8.9 69 2.9 SSE 9 11 5 6 1017.8 1017.4 0.0
26/06:00am 13.7 11.9 7.9 68 2.9 SE 7 9 4 5 1017.2 1016.8 0.0
26/05:30am 14.2 12.1 8.2 67 3.0 SSE 9 11 5 6 1016.8 1016.4 0.0
26/05:00am 13.9 12.0 7.7 66 3.1 SSE 7 9 4 5 1016.5 1016.1 0.0
26/04:30am 14.3 12.1 7.8 65 3.2 SSE 9 11 5 6 1016.5 1016.1 0.0
26/04:00am 14.5 11.5 7.8 64 3.3 S 13 15 7 8 1016.9 1016.5 0.0
26/03:30am 14.8 12.0 7.1 60 3.8 S 11 15 6 8 1017.1 1016.7 0.0
26/03:00am 14.9 12.0 6.7 58 4.0 SSE 11 13 6 7 1016.9 1016.5 0.0
26/02:30am 15.2 11.9 6.5 56 4.2 S 13 17 7 9 1017.2 1016.8 0.0
26/02:00am 16.4 13.6 6.8 53 4.7 S 11 15 6 8 1017.4 1017.0 0.0
26/01:30am 16.8 13.9 6.3 50 5.2 SSE 11 15 6 8 1017.7 1017.3 0.0
26/01:00am 17.7 14.4 6.3 47 5.6 SSE 13 17 7 9 1017.7 1017.3 0.0
26/12:30am 18.4 14.6 5.6 43 6.3 SSE 15 20 8 11 1017.5 1017.1 0.0
26/12:00am 19.1 15.2 5.2 40 6.8 S 15 20 8 11 1017.5 1017.1 0.0
 
Date/Time
EDT
Temp
°C
App
Temp
°C
Dew
Point
°C
Rel
Hum
%
Delta-T
°C
Wind Press
QNH
hPa
Press
MSL
hPa
Rain since
9am
mm
Dir  Spd
km/h
Gust
km/h
Spd
kts
Gust
kts
25/11:30pm 19.4 14.9 4.0 36 7.4 S 17 22 9 12 1017.5 1017.1 0.0
25/11:00pm 19.2 14.5 3.4 35 7.4 SSW 17 20 9 11 1017.5 1017.1 0.0
25/10:30pm 19.4 15.1 3.2 34 7.6 SSW 15 19 8 10 1017.5 1017.1 0.0
25/10:00pm 21.1 16.0 2.9 30 8.6 SSW 19 20 10 11 1017.3 1016.9 0.0
25/09:30pm 22.2 17.1 3.3 29 9.1 S 19 24 10 13 1017.0 1016.6 0.0
25/09:00pm 23.1 17.9 3.6 28 9.5 SSW 20 26 11 14 1016.8 1016.4 0.0
25/08:30pm 23.9 19.1 2.7 25 10.2 SSW 17 22 9 12 1016.5 1016.1 0.0
25/08:00pm 25.7 20.3 2.4 22 11.3 SSW 20 28 11 15 1016.2 1015.8 0.0
25/07:30pm 27.4 21.1 1.8 19 12.4 SSW 24 32 13 17 1016.1 1015.7 0.0
25/07:00pm 28.7 22.7 1.3 17 13.3 SW 22 30 12 16 1015.9 1015.5 0.0
25/06:30pm 29.6 23.6 1.1 16 13.9 SSW 22 35 12 19 1015.8 1015.4 0.0
25/06:00pm 30.0 24.6 1.5 16 14.0 SSW 19 30 10 16 1015.7 1015.3 0.0
25/05:30pm 30.1 24.5 1.5 16 14.1 SW 20 41 11 22 1015.8 1015.4 0.0
25/05:00pm 30.5 25.0 1.9 16 14.2 SSW 20 33 11 18 1015.9 1015.5 0.0
25/04:30pm 30.9 26.0 2.2 16 14.4 S 17 32 9 17 1016.2 1015.8 0.0
25/04:00pm 30.1 25.0 3.2 18 13.6 SSW 19 28 10 15 1016.7 1016.3 0.0
25/03:30pm 29.7 24.1 3.6 19 13.3 SSW 22 32 12 17 1017.1 1016.7 0.0
25/03:00pm 28.9 23.6 3.0 19 13.0 SSW 20 33 11 18 1017.4 1017.0 0.0
25/02:30pm 28.8 24.0 5.6 23 12.2 SW 20 30 11 16 1017.9 1017.5 0.0
25/02:00pm 28.4 23.3 5.9 24 11.8 SW 22 35 12 19 1018.3 1017.9 0.0
25/01:30pm 27.4 22.0 6.2 26 11.1 SSW 24 35 13 19 1018.6 1018.2 0.0
25/01:00pm 26.5 22.5 6.5 28 10.5 S 17 26 9 14 1018.5 1018.1 0.0
25/12:30pm 25.5 21.2 7.1 31 9.7 SSW 19 28 10 15 1019.0 1018.6 0.0
25/12:00pm 24.4 20.9 7.1 33 9.0 SSW 15 26 8 14 1019.5 1019.1 0.0
25/11:30am 22.7 18.8 7.3 37 8.0 S 17 24 9 13 1019.8 1019.4 0.0
25/11:00am 21.8 17.4 7.6 40 7.4 S 20 28 11 15 1020.3 1019.9 0.0
25/10:30am 21.0 16.8 7.6 42 6.9 S 19 26 10 14 1020.4 1020.0 0.0
25/10:00am 19.0 13.8 7.4 47 5.9 S 24 33 13 18 1020.4 1020.0 0.0
25/09:30am 17.7 12.5 7.4 51 5.2 S 24 32 13 17 1020.4 1020.0 0.0
25/09:00am 16.4 11.7 7.6 56 4.4 S 22 28 12 15 1020.3 1019.9 0.0
25/08:30am 15.0 10.9 8.0 63 3.5 S 19 24 10 13 1020.0 1019.6 0.0
25/08:00am 13.1 10.2 8.0 71 2.5 SSW 13 17 7 9 1019.9 1019.5 0.0
25/07:30am 10.9 8.2 7.4 79 1.7 SSW 11 13 6 7 1019.9 1019.5 0.0
25/07:00am 10.6 7.8 7.1 79 1.7 SW 11 13 6 7 1019.8 1019.4 0.0
25/06:30am 11.1 8.4 7.2 77 1.9 SW 11 15 6 8 1019.6 1019.2 0.0
25/06:00am 11.2 8.1 7.3 77 1.9 SSW 13 15 7 8 1019.5 1019.1 0.0
25/05:30am 11.4 7.9 7.1 75 2.1 SSW 15 17 8 9 1019.3 1018.9 0.0
25/05:00am 12.6 9.6 7.5 71 2.5 SSW 13 17 7 9 1019.1 1018.7 0.0
25/04:30am 13.2 9.4 7.6 69 2.8 SSW 17 20 9 11 1019.1 1018.7 0.0
25/04:00am 13.7 9.6 7.7 67 3.0 S 19 28 10 15 1018.8 1018.4 0.0
25/03:30am 14.0 9.9 7.8 66 3.1 S 19 26 10 14 1019.0 1018.6 0.0
25/03:00am 14.5 9.4 7.8 64 3.3 S 24 33 13 18 1019.2 1018.8 0.0
25/02:30am 14.7 9.6 7.7 63 3.5 S 24 32 13 17 1019.2 1018.8 0.0
25/02:00am 15.1 10.4 7.6 61 3.7 S 22 30 12 16 1019.4 1019.0 0.0
25/01:30am 15.5 10.7 7.5 59 4.0 S 22 32 12 17 1019.7 1019.3 0.0
25/01:00am 16.1 11.4 7.6 57 4.3 S 22 30 12 16 1019.9 1019.5 0.0
25/12:30am 16.9 12.1 7.5 54 4.7 S 22 32 12 17 1020.0 1019.6 0.0
25/12:00am 17.7 12.5 7.2 50 5.3 SSW 24 35 13 19 1020.1 1019.7 0.0
 
Date/Time
EDT
Temp
°C
App
Temp
°C
Dew
Point
°C
Rel
Hum
%
Delta-T
°C
Wind Press
QNH
hPa
Press
MSL
hPa
Rain since
9am
mm
Dir  Spd
km/h
Gust
km/h
Spd
kts
Gust
kts
24/11:30pm 19.2 13.7 6.0 42 6.6 S 24 35 13 19 1020.0 1019.6 0.0
24/11:00pm 20.1 14.9 5.4 38 7.2 S 22 30 12 16 1020.2 1019.8 0.0
24/10:30pm 20.6 16.0 5.8 38 7.4 S 19 24 10 13 1020.2 1019.8 0.0
24/10:00pm 22.3 16.8 6.1 35 8.2 S 24 32 13 17 1020.0 1019.6 0.0
24/09:30pm 23.6 18.9 6.0 32 9.0 S 20 28 11 15 1019.9 1019.5 0.0
24/09:00pm 24.9 19.4 4.1 26 10.3 S 22 32 12 17 1019.4 1019.0 0.0
24/08:30pm 26.0 20.2 4.5 25 10.9 S 24 33 13 18 1019.0 1018.6 0.0
24/08:00pm 27.6 22.0 5.2 24 11.5 S 24 35 13 19 1018.5 1018.1 0.0
24/07:30pm 29.1 22.7 3.1 19 13.1 SSW 26 33 14 18 1018.2 1017.8 0.0
24/07:00pm 30.1 23.9 2.4 17 13.8 SSW 24 32 13 17 1018.1 1017.7 0.0
24/06:30pm 30.7 23.9 1.1 15 14.5 S 26 33 14 18 1018.0 1017.6 0.0
24/06:00pm 31.7 26.0 2.8 16 14.7 S 22 33 12 18 1017.9 1017.5 0.0
24/05:30pm 31.6 26.2 4.4 18 14.2 SSW 22 35 12 19 1018.0 1017.6 0.0
24/05:00pm 31.2 25.9 4.9 19 13.8 SSW 22 32 12 17 1018.0 1017.6 0.0
24/04:30pm 31.6 26.0 5.2 19 14.0 SW 24 35 13 19 1018.3 1017.9 0.0
24/04:00pm 31.4 25.7 5.0 19 13.9 SSW 24 41 13 22 1018.6 1018.2 0.0
24/03:30pm 31.0 24.5 4.7 19 13.7 SW 28 37 15 20 1018.9 1018.5 0.0
24/03:00pm 30.3 25.2 6.2 22 12.8 SW 22 39 12 21 1019.3 1018.9 0.0
24/02:30pm 30.5 24.4 5.0 20 13.4 SSW 26 39 14 21 1019.8 1019.4 0.0
24/02:00pm 30.0 25.2 7.2 24 12.3 SSW 22 39 12 21 1020.2 1019.8 0.0
24/01:30pm 28.7 24.2 8.4 28 11.1 SSW 22 41 12 22 1020.6 1020.2 0.0
24/01:00pm 27.6 23.1 8.5 30 10.4 SW 22 30 12 16 1020.9 1020.5 0.0
24/12:30pm 27.3 23.3 9.2 32 10.0 S 20 35 11 19 1021.4 1021.0 0.0
24/12:00pm 27.4 25.1 10.6 35 9.5 S 13 24 7 13 1021.6 1021.2 0.0
24/11:30am 26.2 22.6 10.4 37 8.9 SSW 20 30 11 16 1021.9 1021.5 0.0
24/11:00am 25.3 21.7 10.7 40 8.2 S 20 28 11 15 1022.0 1021.6 0.0
24/10:30am 24.5 21.8 11.8 45 7.2 S 17 24 9 13 1022.1 1021.7 0.0
24/10:00am 23.8 21.2 12.1 48 6.7 S 17 26 9 14 1022.0 1021.6 0.0
24/09:30am 22.1 19.2 12.4 54 5.5 SSE 19 26 10 14 1022.0 1021.6 0.0
24/09:00am 20.0 16.9 12.3 61 4.3 S 20 28 11 15 1021.8 1021.4 0.0
24/08:30am 18.6 15.2 12.6 68 3.4 S 22 30 12 16 1021.5 1021.1 0.0
24/08:00am 17.3 14.9 12.8 75 2.5 S 17 20 9 11 1021.2 1020.8 0.0
24/07:30am 16.2 14.2 12.6 79 2.0 S 15 20 8 11 1020.8 1020.4 0.0
24/07:00am 16.3 13.9 12.7 79 2.0 S 17 20 9 11 1020.3 1019.9 0.0
24/06:30am 16.7 13.3 12.5 76 2.3 S 22 30 12 16 1019.9 1019.5 0.0
24/06:00am 16.9 13.0 12.2 74 2.6 SSW 24 32 13 17 1019.6 1019.2 0.0
24/05:30am 17.1 13.5 11.8 71 2.9 SSW 22 28 12 15 1019.2 1018.8 0.0
24/05:00am 16.9 13.5 10.5 66 3.4 SSW 19 22 10 12 1019.0 1018.6 0.0
24/04:30am 16.9 13.5 9.1 60 4.1 SSW 17 20 9 11 1018.8 1018.4 0.0
24/04:00am 17.5 14.0 8.9 57 4.5 SSW 17 20 9 11 1018.7 1018.3 0.0
24/03:30am 17.9 14.7 8.5 54 4.9 SW 15 17 8 9 1018.7 1018.3 0.0
24/03:00am 18.2 15.1 8.7 54 4.9 SW 15 19 8 10 1018.6 1018.2 0.0
24/02:30am 17.4 14.1 8.0 54 4.8 SW 15 17 8 9 1018.6 1018.2 0.0
24/02:00am 16.9 13.8 7.3 53 4.8 WSW 13 15 7 8 1018.7 1018.3 0.0
24/01:30am 17.4 14.6 6.9 50 5.2 SW 11 13 6 7 1018.8 1018.4 0.0
24/01:00am 18.1 14.9 6.9 48 5.6 WSW 13 15 7 8 1018.9 1018.5 0.0
24/12:30am 18.0 14.8 6.8 48 5.6 WSW 13 17 7 9 1019.0 1018.6 0.0
24/12:00am 19.0 15.7 6.5 44 6.2 SW 13 15 7 8 1018.9 1018.5 0.0
 
Date/Time
EDT
Temp
°C
App
Temp
°C
Dew
Point
°C
Rel
Hum
%
Delta-T
°C
Wind Press
QNH
hPa
Press
MSL
hPa
Rain since
9am
mm
Dir  Spd
km/h
Gust
km/h
Spd
kts
Gust
kts
23/11:30pm 20.2 16.5 6.5 41 6.9 SW 15 17 8 9 1018.8 1018.4 0.0
23/11:00pm 21.5 17.9 6.6 38 7.6 SW 15 20 8 11 1018.9 1018.5 0.0
23/10:30pm 21.9 18.6 6.2 36 8.0 SW 13 17 7 9 1018.8 1018.4 0.0
23/10:00pm 24.3 20.4 7.0 33 9.0 SW 17 20 9 11 1018.6 1018.2 0.0
23/09:30pm 24.9 21.0 7.1 32 9.4 SW 17 22 9 12 1018.3 1017.9 0.0
23/09:00pm 25.2 22.1 7.3 32 9.4 SW 13 15 7 8 1017.8 1017.4 0.0
23/08:30pm 26.9 23.6 7.9 30 10.2 SW 15 17 8 9 1017.5 1017.1 0.0
23/08:00pm 29.0 24.8 7.6 26 11.6 SW 19 22 10 12 1017.1 1016.7 0.0
23/07:30pm 30.7 26.3 6.6 22 13.0 WSW 19 22 10 12 1016.6 1016.2 0.0
23/07:00pm 31.4 27.1 7.8 23 13.0 WSW 20 30 11 16 1016.6 1016.2 0.0
23/06:30pm 32.4 27.8 8.0 22 13.6 WSW 22 32 12 17 1016.5 1016.1 0.0
23/06:00pm 32.6 28.4 8.1 22 13.6 WSW 20 33 11 18 1016.3 1015.9 0.0
23/05:30pm 33.1 28.8 7.1 20 14.3 WSW 19 26 10 14 1016.2 1015.8 0.0
23/05:00pm 32.8 27.9 6.9 20 14.2 W 22 33 12 18 1016.1 1015.7 0.0

Other Formats:

Comma delimited format used in spreadsheet applications
http://www.bom.gov.au/fwo/IDN60801/IDN60801.94702.axf

JavaScript Object Notation format (JSON) in row-major order
http://www.bom.gov.au/fwo/IDN60801/IDN60801.94702.json